Time;durP1;ratioP1;P1;durP2;ratioP2;P2;SDS_P1;SDS_P2;PMS_P1;PMS_P2;Temp;Humidity;BMP_temperature;BMP_pressure;BME280_temperature;BME280_humidity;BME280_pressure;Samples;Min_cycle;Max_cycle;Signal;HPM_P1;HPM_P2
2022/03/28 00:01:32;;;;;;;14.13;8.50;;;9.80;63.60;;;;;;4954291;28;20035;-85
2022/03/28 00:03:57;;;;;;;15.43;9.30;;;9.70;63.60;;;;;;4970878;28;20027;-86
2022/03/28 00:06:23;;;;;;;17.50;9.07;;;9.70;63.70;;;;;;4954440;29;20027;-86
2022/03/28 00:08:49;;;;;;;19.77;9.15;;;9.60;63.80;;;;;;4969853;28;20050;-86
2022/03/28 00:11:16;;;;;;;16.45;8.95;;;9.60;63.90;;;;;;4954641;29;20027;-87
2022/03/28 00:13:45;;;;;;;13.85;9.00;;;9.50;63.80;;;;;;4954648;29;20103;-87
2022/03/28 00:16:11;;;;;;;15.20;9.13;;;9.50;63.80;;;;;;4954610;29;20515;-86
2022/03/28 00:18:39;;;;;;;15.50;8.63;;;9.30;63.80;;;;;;4954167;29;20031;-86
2022/03/28 00:21:05;;;;;;;17.15;8.77;;;9.20;63.90;;;;;;4934848;29;20042;-86
2022/03/28 00:23:32;;;;;;;13.50;8.38;;;9.10;64.30;;;;;;4946853;29;20027;-86
2022/03/28 00:25:58;;;;;;;15.07;8.57;;;9.00;64.50;;;;;;4970093;28;20028;-86
2022/03/28 00:28:25;;;;;;;14.60;8.65;;;9.00;64.60;;;;;;4954313;29;20024;-86
2022/03/28 00:30:50;;;;;;;15.20;9.13;;;9.00;64.60;;;;;;4970180;28;20408;-85
2022/03/28 00:33:16;;;;;;;14.50;8.63;;;9.00;64.60;;;;;;4955476;29;20030;-85
2022/03/28 00:35:42;;;;;;;12.98;8.30;;;9.10;64.70;;;;;;4969325;28;20023;-85
2022/03/28 00:38:08;;;;;;;17.38;8.63;;;9.10;64.70;;;;;;4948713;29;20102;-86
2022/03/28 00:40:34;;;;;;;12.27;8.38;;;8.90;64.70;;;;;;4954088;29;20055;-86
2022/03/28 00:43:03;;;;;;;16.75;8.55;;;8.90;64.80;;;;;;4970369;28;20045;-86
2022/03/28 00:45:30;;;;;;;15.05;8.23;;;8.90;65.00;;;;;;4963288;28;20038;-86
2022/03/28 00:47:55;;;;;;;15.10;7.90;;;8.90;65.10;;;;;;4946439;29;20031;-86
2022/03/28 00:50:21;;;;;;;15.23;8.55;;;8.90;65.10;;;;;;4970320;28;20031;-87
2022/03/28 00:52:47;;;;;;;16.75;8.85;;;8.80;65.00;;;;;;4970331;28;20024;-86
2022/03/28 00:55:13;;;;;;;12.35;7.65;;;8.70;65.00;;;;;;4954185;29;20050;-86
2022/03/28 00:57:40;;;;;;;13.65;8.15;;;8.70;65.10;;;;;;4949937;29;20020;-86
2022/03/28 01:00:09;;;;;;;15.25;8.02;;;8.70;65.30;;;;;;4934959;29;20041;-85
2022/03/28 01:02:35;;;;;;;15.52;8.60;;;8.70;65.50;;;;;;4934376;29;20031;-85
2022/03/28 01:05:00;;;;;;;13.20;7.65;;;8.60;65.50;;;;;;4942849;29;20031;-86
2022/03/28 01:07:27;;;;;;;12.52;7.45;;;8.60;65.50;;;;;;4953755;29;20023;-87
2022/03/28 01:09:55;;;;;;;13.95;7.53;;;8.50;65.50;;;;;;4970399;28;20047;-87
2022/03/28 01:12:23;;;;;;;13.70;7.75;;;8.50;65.70;;;;;;4963123;28;20027;-85
2022/03/28 01:14:49;;;;;;;12.35;7.47;;;8.50;65.70;;;;;;4934364;29;20028;-86
2022/03/28 01:19:59;;;;;;;11.93;7.03;;;8.30;65.40;;;;;;4936089;29;20042;-85
2022/03/28 01:22:24;;;;;;;11.65;7.75;;;8.20;65.50;;;;;;4947761;29;20178;-86
2022/03/28 01:24:50;;;;;;;10.75;7.65;;;8.10;65.80;;;;;;4969675;28;20031;-86
2022/03/28 01:27:16;;;;;;;12.25;8.20;;;8.10;65.90;;;;;;4954444;28;20031;-85
2022/03/28 01:29:44;;;;;;;13.93;7.72;;;8.10;66.00;;;;;;4950199;29;20024;-86
2022/03/28 01:32:10;;;;;;;13.75;8.02;;;8.10;66.20;;;;;;4950518;29;20032;-86
2022/03/28 01:34:36;;;;;;;10.43;7.30;;;8.10;66.30;;;;;;4959904;28;20046;-85
2022/03/28 01:37:01;;;;;;;14.32;7.63;;;8.10;66.30;;;;;;4953562;28;20059;-84
2022/03/28 01:39:27;;;;;;;11.68;7.45;;;8.10;66.30;;;;;;4972714;28;20086;-87
2022/03/28 01:41:53;;;;;;;11.80;7.07;;;8.00;66.20;;;;;;4955331;29;20027;-86
2022/03/28 01:44:18;;;;;;;12.13;7.18;;;7.90;66.20;;;;;;4957847;29;20027;-86
2022/03/28 01:46:47;;;;;;;14.20;7.35;;;7.90;66.30;;;;;;4957341;29;20031;-86
2022/03/28 01:49:13;;;;;;;14.85;8.05;;;7.80;66.50;;;;;;4958881;28;20031;-85
2022/03/28 01:51:39;;;;;;;14.77;7.95;;;7.80;66.70;;;;;;4962704;28;20382;-86
2022/03/28 01:54:06;;;;;;;14.80;7.40;;;7.80;66.80;;;;;;4958031;28;20023;-86
2022/03/28 01:56:34;;;;;;;15.52;7.95;;;7.70;66.80;;;;;;4957583;29;20023;-85
2022/03/28 01:59:00;;;;;;;13.18;7.90;;;7.70;66.90;;;;;;4973425;28;20106;-85
2022/03/28 02:01:26;;;;;;;13.57;7.90;;;7.60;66.90;;;;;;4957406;29;20031;-87
2022/03/28 02:03:51;;;;;;;14.98;7.50;;;7.60;67.10;;;;;;4957189;29;20027;-86
2022/03/28 02:06:17;;;;;;;14.32;7.80;;;7.60;67.20;;;;;;4956629;29;20087;-85
2022/03/28 02:08:42;;;;;;;14.70;8.05;;;7.60;67.20;;;;;;4975143;28;20394;-84
2022/03/28 02:11:08;;;;;;;12.10;7.72;;;7.60;67.10;;;;;;4957104;29;20033;-85
2022/03/28 02:13:33;;;;;;;15.32;7.85;;;7.50;67.10;;;;;;4957139;29;20114;-86
2022/03/28 02:16:00;;;;;;;11.73;7.50;;;7.50;67.30;;;;;;4972860;28;20034;-86
2022/03/28 02:18:26;;;;;;;16.42;8.02;;;7.40;67.40;;;;;;4973142;28;20019;-86
2022/03/28 02:20:52;;;;;;;12.90;8.13;;;7.40;67.50;;;;;;4973613;28;20634;-85
2022/03/28 02:23:18;;;;;;;15.60;8.85;;;7.40;67.50;;;;;;4969872;28;20039;-86
2022/03/28 02:25:44;;;;;;;14.50;8.52;;;7.30;67.60;;;;;;4955637;29;20069;-87
2022/03/28 02:28:11;;;;;;;16.60;8.45;;;7.30;67.70;;;;;;4957192;29;20086;-86
2022/03/28 02:30:37;;;;;;;18.75;8.60;;;7.20;67.80;;;;;;4956729;28;20039;-85
2022/03/28 02:33:03;;;;;;;17.42;8.45;;;7.20;67.90;;;;;;4956127;29;20366;-85
2022/03/28 02:35:28;;;;;;;16.45;9.57;;;7.10;67.90;;;;;;4958154;28;20038;-86
2022/03/28 02:37:54;;;;;;;14.10;9.13;;;7.10;67.90;;;;;;4956832;29;20030;-85
2022/03/28 02:40:19;;;;;;;18.40;9.65;;;7.10;68.00;;;;;;4958214;29;20074;-84
2022/03/28 02:42:45;;;;;;;19.13;9.73;;;7.00;68.00;;;;;;4973047;28;20131;-85
2022/03/28 02:45:11;;;;;;;14.40;9.27;;;6.90;68.00;;;;;;4972722;28;20024;-87
2022/03/28 02:47:36;;;;;;;18.67;10.32;;;6.90;68.30;;;;;;5033622;23;20054;-90
2022/03/28 02:50:03;;;;;;;19.17;10.32;;;6.90;68.50;;;;;;4982824;28;20353;-90
2022/03/28 02:52:29;;;;;;;16.58;9.60;;;6.90;68.60;;;;;;4993055;28;20066;-89
2022/03/28 02:54:55;;;;;;;16.55;9.30;;;6.80;68.70;;;;;;4995301;28;20030;-89
2022/03/28 02:57:21;;;;;;;14.18;8.45;;;6.80;68.70;;;;;;4978076;28;20022;-88
2022/03/28 02:59:46;;;;;;;14.77;8.82;;;6.80;68.70;;;;;;4994000;28;20033;-89
2022/03/28 03:02:12;;;;;;;16.42;9.40;;;6.90;68.70;;;;;;4979785;28;20030;-89
2022/03/28 03:04:38;;;;;;;15.02;8.40;;;6.80;68.70;;;;;;4978131;28;20366;-88
2022/03/28 03:07:04;;;;;;;13.57;7.40;;;6.80;68.80;;;;;;4971720;28;20034;-90
2022/03/28 03:09:30;;;;;;;12.07;7.65;;;6.70;68.70;;;;;;4975640;28;20557;-89
2022/03/28 03:11:56;;;;;;;13.25;7.72;;;6.70;68.80;;;;;;4977856;28;20034;-90
2022/03/28 03:14:23;;;;;;;14.23;7.88;;;6.60;68.90;;;;;;4978200;28;20026;-88
2022/03/28 03:16:50;;;;;;;13.05;7.40;;;6.50;69.00;;;;;;4995215;28;20018;-89
2022/03/28 03:19:15;;;;;;;13.55;7.55;;;6.50;69.20;;;;;;4972454;28;20035;-89
2022/03/28 03:21:41;;;;;;;15.93;7.93;;;6.40;69.30;;;;;;4986435;28;20422;-89
2022/03/28 03:24:07;;;;;;;11.27;7.25;;;6.40;69.50;;;;;;4973803;28;20442;-88
2022/03/28 03:26:33;;;;;;;14.55;7.60;;;6.40;69.50;;;;;;4976538;28;20027;-89
2022/03/28 03:28:59;;;;;;;15.02;7.53;;;6.30;69.50;;;;;;4977548;28;20470;-89
2022/03/28 03:31:25;;;;;;;12.13;7.65;;;6.30;69.60;;;;;;4979334;28;20035;-88
2022/03/28 03:33:51;;;;;;;14.13;8.48;;;6.20;69.70;;;;;;4978463;28;20029;-90
2022/03/28 03:36:17;;;;;;;11.30;6.78;;;6.20;69.80;;;;;;4975724;28;20018;-89
2022/03/28 03:38:43;;;;;;;12.77;7.22;;;6.20;69.90;;;;;;4977376;28;20483;-88
2022/03/28 03:41:08;;;;;;;14.65;7.40;;;6.20;70.00;;;;;;4985362;28;20031;-88
2022/03/28 03:43:34;;;;;;;12.10;7.53;;;6.20;69.90;;;;;;4992694;28;20045;-88
2022/03/28 03:45:59;;;;;;;10.65;6.93;;;6.10;69.90;;;;;;4979487;28;20502;-88
2022/03/28 03:48:27;;;;;;;10.90;7.38;;;6.10;69.90;;;;;;4978047;28;20103;-89
2022/03/28 03:50:53;;;;;;;13.88;7.70;;;6.00;70.00;;;;;;4978285;28;20030;-87
2022/03/28 03:53:19;;;;;;;14.25;7.75;;;5.90;70.10;;;;;;4977090;28;20132;-87
2022/03/28 03:55:45;;;;;;;12.15;7.63;;;5.90;70.30;;;;;;4977939;28;20022;-88
2022/03/28 03:58:11;;;;;;;12.70;7.60;;;5.90;70.40;;;;;;4972814;28;20030;-88
2022/03/28 04:00:37;;;;;;;13.75;8.10;;;5.90;70.50;;;;;;4978076;28;20037;-89
2022/03/28 04:03:03;;;;;;;15.43;7.65;;;5.80;70.50;;;;;;4981159;28;20402;-90
2022/03/28 04:05:30;;;;;;;11.52;7.38;;;5.80;71.10;;;;;;4978159;28;20049;-89
2022/03/28 04:07:56;;;;;;;11.65;7.20;;;5.80;70.80;;;;;;4995303;28;20106;-88
2022/03/28 04:10:26;;;;;;;13.00;7.88;;;5.80;70.80;;;;;;4982451;28;20120;-89
2022/03/28 04:12:52;;;;;;;14.45;8.05;;;5.80;70.90;;;;;;4977675;28;20022;-88
2022/03/28 04:15:17;;;;;;;12.82;7.70;;;5.70;71.00;;;;;;4994957;28;20559;-89
2022/03/28 04:17:45;;;;;;;11.82;7.60;;;5.70;71.10;;;;;;4978761;28;20027;-89
2022/03/28 04:20:13;;;;;;;12.95;7.75;;;5.60;71.20;;;;;;4972827;28;20029;-88
2022/03/28 04:22:40;;;;;;;12.88;7.82;;;5.60;71.30;;;;;;4995536;28;20026;-90
2022/03/28 04:25:07;;;;;;;14.18;7.93;;;5.60;71.40;;;;;;4977153;28;20026;-89
2022/03/28 04:27:34;;;;;;;12.90;7.15;;;5.60;71.40;;;;;;4977348;28;20109;-89
2022/03/28 04:29:59;;;;;;;11.52;6.70;;;5.60;71.60;;;;;;4977211;28;20102;-89
2022/03/28 04:32:25;;;;;;;16.58;8.45;;;5.60;71.60;;;;;;4973064;28;20121;-88
2022/03/28 04:34:52;;;;;;;12.93;8.02;;;5.60;71.60;;;;;;4968367;28;20026;-89
2022/03/28 04:37:17;;;;;;;12.35;7.88;;;5.60;71.60;;;;;;4977686;28;20058;-89
2022/03/28 04:39:43;;;;;;;16.25;8.10;;;5.60;71.70;;;;;;4978038;28;20069;-89
2022/03/28 04:42:09;;;;;;;17.70;8.63;;;5.50;71.80;;;;;;4996587;28;20097;-89
2022/03/28 04:44:34;;;;;;;13.05;7.80;;;5.50;71.90;;;;;;4979963;28;20542;-89
2022/03/28 04:47:00;;;;;;;18.40;8.13;;;5.40;71.90;;;;;;4978143;28;20066;-89
2022/03/28 04:49:25;;;;;;;13.90;7.60;;;5.40;71.90;;;;;;4981158;28;20117;-89
2022/03/28 04:51:51;;;;;;;14.35;7.68;;;5.40;72.00;;;;;;4977197;28;20446;-90
2022/03/28 04:54:19;;;;;;;13.15;8.15;;;5.30;72.00;;;;;;4976701;28;20081;-89
2022/03/28 04:56:44;;;;;;;15.23;8.63;;;5.30;72.20;;;;;;4978449;28;20022;-89
2022/03/28 04:59:11;;;;;;;15.45;8.65;;;5.20;72.80;;;;;;4974929;28;20395;-89
2022/03/28 05:01:36;;;;;;;12.88;7.75;;;5.20;72.40;;;;;;4968180;28;20046;-89
2022/03/28 05:04:02;;;;;;;18.08;8.13;;;5.20;72.70;;;;;;4978047;28;20077;-89
2022/03/28 05:06:28;;;;;;;17.20;8.20;;;5.20;72.80;;;;;;4983626;28;20038;-87
2022/03/28 05:08:53;;;;;;;11.90;7.47;;;5.20;72.80;;;;;;5002120;28;20010;-88
2022/03/28 05:11:22;;;;;;;14.85;7.82;;;5.10;72.70;;;;;;4991645;28;20023;-87
2022/03/28 05:13:51;;;;;;;15.90;7.90;;;5.10;72.70;;;;;;4992339;28;20015;-87
2022/03/28 05:16:18;;;;;;;16.73;8.75;;;5.10;73.00;;;;;;4996887;28;20023;-87
2022/03/28 05:18:44;;;;;;;13.20;8.07;;;5.00;73.00;;;;;;4990431;28;20022;-86
2022/03/28 05:21:09;;;;;;;13.07;8.10;;;5.10;73.30;;;;;;4993059;28;20022;-87
2022/03/28 05:23:35;;;;;;;16.73;8.30;;;5.00;73.30;;;;;;5007112;28;20042;-87
2022/03/28 05:26:03;;;;;;;12.40;7.50;;;5.00;73.40;;;;;;5008271;28;20034;-89
2022/03/28 05:28:28;;;;;;;12.82;7.78;;;5.00;73.50;;;;;;4997988;28;20045;-87
2022/03/28 05:30:57;;;;;;;15.32;8.35;;;5.00;73.60;;;;;;4993312;28;20078;-87
2022/03/28 05:33:23;;;;;;;13.77;7.80;;;5.00;73.80;;;;;;5012718;28;20021;-88
2022/03/28 05:35:50;;;;;;;11.85;8.45;;;5.00;73.80;;;;;;4995357;28;20037;-86
2022/03/28 05:38:17;;;;;;;13.65;8.30;;;5.10;73.90;;;;;;4999092;28;20130;-86
2022/03/28 05:40:43;;;;;;;14.13;7.70;;;5.10;74.00;;;;;;5004772;28;20030;-90
2022/03/28 05:43:09;;;;;;;14.88;8.10;;;5.10;74.10;;;;;;4991166;28;20026;-87
2022/03/28 05:45:36;;;;;;;17.58;8.75;;;5.10;74.10;;;;;;4997928;28;20011;-87
2022/03/28 05:48:02;;;;;;;14.90;8.80;;;5.10;74.40;;;;;;4995863;28;20030;-87
2022/03/28 05:50:27;;;;;;;15.07;9.05;;;5.10;74.70;;;;;;4997415;28;20030;-88
2022/03/28 05:52:54;;;;;;;16.75;8.80;;;5.10;74.70;;;;;;4977436;28;20077;-90
2022/03/28 05:55:20;;;;;;;15.63;9.20;;;5.20;74.70;;;;;;4989890;28;20065;-89
2022/03/28 05:57:46;;;;;;;11.50;7.28;;;5.10;74.80;;;;;;4985587;28;20027;-90
2022/03/28 06:00:14;;;;;;;17.45;8.00;;;5.20;74.90;;;;;;4983248;28;20129;-90
2022/03/28 06:02:40;;;;;;;18.65;8.95;;;5.20;75.10;;;;;;4978972;28;20027;-89
2022/03/28 06:05:06;;;;;;;15.70;8.50;;;5.20;75.30;;;;;;4996228;28;20026;-88
2022/03/28 06:07:32;;;;;;;14.48;8.60;;;5.20;75.60;;;;;;4995380;28;20027;-88
2022/03/28 06:09:58;;;;;;;18.42;9.40;;;5.30;76.00;;;;;;5010588;28;20027;-87
2022/03/28 06:12:23;;;;;;;15.10;9.18;;;5.30;76.00;;;;;;4994838;28;20367;-87
2022/03/28 06:14:49;;;;;;;17.27;9.35;;;5.40;76.00;;;;;;4985510;28;20026;-88
2022/03/28 06:17:25;;;;;;;15.23;9.40;;;5.40;75.90;;;;;;4993242;28;20022;-89
2022/03/28 06:19:52;;;;;;;17.20;9.10;;;5.50;76.30;;;;;;4976247;28;20035;-89
2022/03/28 06:22:19;;;;;;;18.73;10.15;;;5.50;76.30;;;;;;4970403;28;20027;-89
2022/03/28 06:24:45;;;;;;;14.57;8.63;;;5.60;76.70;;;;;;4975176;28;20026;-89
2022/03/28 06:27:11;;;;;;;15.98;8.85;;;5.70;76.80;;;;;;4979536;28;20173;-89
2022/03/28 06:29:37;;;;;;;15.57;8.77;;;5.80;76.90;;;;;;4979676;28;20030;-91
2022/03/28 06:32:03;;;;;;;18.08;9.57;;;6.00;77.10;;;;;;4980438;28;20030;-90
2022/03/28 06:34:30;;;;;;;15.90;9.00;;;6.10;77.20;;;;;;4978935;28;20022;-89
2022/03/28 06:36:56;;;;;;;17.80;9.27;;;6.30;77.50;;;;;;4980010;28;20058;-89
2022/03/28 06:39:29;;;;;;;13.90;8.65;;;6.50;77.40;;;;;;4996600;28;20062;-90
2022/03/28 06:41:55;;;;;;;15.27;8.73;;;6.60;77.70;;;;;;4978174;28;20141;-90
2022/03/28 06:44:20;;;;;;;14.00;8.90;;;6.70;77.40;;;;;;4974773;28;20026;-89
2022/03/28 06:46:46;;;;;;;13.43;8.10;;;6.80;77.40;;;;;;4981087;28;20018;-91
2022/03/28 06:49:12;;;;;;;14.30;8.27;;;7.00;77.50;;;;;;4995665;28;20022;-92
2022/03/28 06:51:38;;;;;;;14.52;9.55;;;7.10;77.50;;;;;;4996175;28;20101;-86
2022/03/28 06:54:05;;;;;;;19.90;10.05;;;7.20;77.70;;;;;;5004875;28;20084;-89
2022/03/28 06:56:31;;;;;;;15.52;9.48;;;7.50;77.90;;;;;;4992001;28;20093;-88
2022/03/28 06:58:56;;;;;;;19.35;9.25;;;7.70;77.60;;;;;;4976593;28;20439;-88
2022/03/28 07:01:22;;;;;;;14.32;8.70;;;8.00;77.30;;;;;;4992830;28;20038;-89
2022/03/28 07:03:48;;;;;;;17.08;9.38;;;8.20;77.00;;;;;;5014946;28;20038;-89
2022/03/28 07:06:14;;;;;;;16.70;9.15;;;8.40;76.80;;;;;;4998359;28;20038;-89
2022/03/28 07:08:39;;;;;;;14.63;9.13;;;8.70;76.50;;;;;;4988504;28;20696;-90
2022/03/28 07:11:05;;;;;;;16.23;9.10;;;9.00;76.10;;;;;;4976462;28;20187;-89
2022/03/28 07:13:33;;;;;;;17.30;9.43;;;9.40;75.80;;;;;;4992928;28;20105;-90
2022/03/28 07:15:59;;;;;;;23.40;9.05;;;9.70;75.30;;;;;;4986086;28;20026;-89
2022/03/28 07:18:24;;;;;;;15.68;9.10;;;10.20;74.40;;;;;;4982237;28;20026;-89
2022/03/28 07:20:50;;;;;;;17.30;9.85;;;10.60;73.80;;;;;;4978994;28;20034;-89
2022/03/28 07:23:17;;;;;;;13.88;9.18;;;10.90;73.20;;;;;;4977976;28;20026;-90
2022/03/28 07:25:43;;;;;;;18.10;9.95;;;11.20;72.90;;;;;;4977036;28;20107;-89
2022/03/28 07:28:10;;;;;;;15.77;10.13;;;11.60;72.60;;;;;;4976310;28;20026;-89
2022/03/28 07:30:37;;;;;;;19.45;9.40;;;11.80;71.90;;;;;;4973912;28;20340;-89
2022/03/28 07:33:03;;;;;;;20.10;8.70;;;12.20;71.10;;;;;;4978821;28;20019;-90
2022/03/28 07:35:31;;;;;;;16.10;9.38;;;12.60;70.50;;;;;;4974915;28;20498;-89
2022/03/28 07:37:57;;;;;;;18.50;9.45;;;13.10;69.60;;;;;;4976012;28;20125;-89
2022/03/28 07:40:23;;;;;;;19.25;9.27;;;13.70;68.60;;;;;;4977068;28;20061;-89
2022/03/28 07:42:48;;;;;;;18.98;9.23;;;14.30;67.20;;;;;;4978121;28;20033;-90
2022/03/28 07:45:14;;;;;;;23.88;9.25;;;15.00;65.80;;;;;;4976788;28;20030;-90
2022/03/28 07:47:41;;;;;;;17.63;9.23;;;15.70;64.50;;;;;;4977337;28;20478;-90
2022/03/28 07:50:08;;;;;;;18.67;8.50;;;16.50;63.30;;;;;;4978484;28;20051;-92
2022/03/28 07:52:34;;;;;;;22.20;8.90;;;17.10;62.20;;;;;;4980153;28;20027;-90
2022/03/28 07:55:00;;;;;;;30.30;9.30;;;17.80;61.10;;;;;;4978737;28;20021;-90
2022/03/28 07:57:29;;;;;;;16.35;9.35;;;18.60;60.20;;;;;;4981030;28;20035;-91
2022/03/28 07:59:55;;;;;;;28.33;9.98;;;19.30;58.90;;;;;;4979287;28;20026;-89
2022/03/28 08:02:20;;;;;;;23.48;8.85;;;19.90;57.50;;;;;;4976044;28;20030;-87
2022/03/28 08:04:46;;;;;;;25.92;9.43;;;20.40;56.70;;;;;;4968084;28;20389;-86
2022/03/28 08:07:12;;;;;;;25.25;9.82;;;20.10;56.20;;;;;;4993653;28;20443;-88
2022/03/28 08:09:39;;;;;;;18.58;8.60;;;19.50;56.80;;;;;;4995226;28;20035;-90
2022/03/28 08:12:06;;;;;;;24.92;9.95;;;20.30;55.80;;;;;;4976956;28;20058;-90
2022/03/28 08:14:32;;;;;;;19.23;9.38;;;21.20;54.70;;;;;;4968781;28;20539;-91
2022/03/28 08:16:58;;;;;;;14.82;8.98;;;22.00;52.90;;;;;;4975571;28;20427;-90
2022/03/28 08:19:24;;;;;;;15.68;8.95;;;22.60;51.40;;;;;;4977183;28;20030;-90
2022/03/28 08:21:50;;;;;;;19.08;8.95;;;23.20;50.40;;;;;;4977605;28;20502;-90
2022/03/28 08:24:17;;;;;;;21.67;9.55;;;23.80;49.20;;;;;;4974838;28;20037;-89
2022/03/28 08:26:43;;;;;;;26.58;9.57;;;24.30;48.10;;;;;;4976693;28;20026;-89
2022/03/28 08:29:09;;;;;;;17.02;9.65;;;24.70;47.00;;;;;;4982468;28;20026;-90
2022/03/28 08:31:35;;;;;;;14.23;9.18;;;25.00;46.50;;;;;;4972213;28;20018;-89
2022/03/28 08:34:00;;;;;;;18.55;9.80;;;25.30;45.90;;;;;;4977382;28;20026;-90
2022/03/28 08:36:59;;;;;;;18.55;10.23;;;25.60;45.10;;;;;;4979660;28;20034;-91
2022/03/28 08:39:40;;;;;;;22.42;9.75;;;25.60;44.30;;;;;;4978946;28;20030;-91
2022/03/28 08:52:24;;;;;;;34.85;9.93;;;25.80;44.00;;;;;;4954983;29;20055;-88
2022/03/28 08:54:50;;;;;;;40.03;9.95;;;26.00;43.90;;;;;;4940003;29;20425;-89
2022/03/28 08:57:16;;;;;;;30.65;9.57;;;26.10;43.80;;;;;;4939480;28;20026;-89
2022/03/28 08:59:42;;;;;;;41.47;11.15;;;26.40;44.00;;;;;;4939299;29;20027;-89
2022/03/28 09:02:32;;;;;;;39.70;10.40;;;26.60;43.10;;;;;;4945755;28;20042;-88
2022/03/28 09:04:59;;;;;;;31.85;10.63;;;26.40;42.90;;;;;;4955496;28;20027;-88
2022/03/28 09:07:28;;;;;;;26.05;9.73;;;26.10;42.80;;;;;;4939291;28;20055;-88
2022/03/28 09:10:03;;;;;;;19.58;9.98;;;25.90;43.20;;;;;;4939899;29;20061;-89
2022/03/28 09:12:28;;;;;;;23.80;9.70;;;25.70;42.60;;;;;;4937728;29;20058;-88
2022/03/28 09:15:08;;;;;;;21.10;9.70;;;25.60;42.90;;;;;;4938578;29;20031;-88
2022/03/28 09:17:33;;;;;;;21.65;10.60;;;25.40;42.50;;;;;;4940084;29;20070;-87
2022/03/28 09:20:04;;;;;;;20.52;9.90;;;25.20;43.00;;;;;;4939936;29;20024;-88
2022/03/28 09:22:36;;;;;;;19.55;9.52;;;25.10;43.00;;;;;;4940422;29;20027;-89
2022/03/28 09:25:06;;;;;;;20.15;10.38;;;24.90;41.70;;;;;;4950868;28;20129;-88
2022/03/28 09:27:33;;;;;;;20.27;9.95;;;24.60;41.60;;;;;;4958710;28;20039;-89
2022/03/28 09:30:08;;;;;;;18.25;10.02;;;24.30;41.70;;;;;;4973051;28;20023;-89
2022/03/28 09:32:40;;;;;;;23.45;11.05;;;24.00;42.50;;;;;;4959002;29;20024;-87
2022/03/28 09:35:21;;;;;;;21.35;10.05;;;23.90;43.20;;;;;;4939027;28;20528;-88
2022/03/28 09:38:04;;;;;;;19.45;10.70;;;23.90;43.60;;;;;;4966048;28;20035;-89
2022/03/28 09:40:44;;;;;;;21.52;10.93;;;23.90;43.70;;;;;;4942343;29;20024;-88
2022/03/28 09:43:19;;;;;;;22.45;10.88;;;23.80;43.10;;;;;;4931925;29;20066;-88
2022/03/28 09:46:02;;;;;;;23.58;10.90;;;23.70;42.90;;;;;;4956166;28;20114;-89
2022/03/28 09:48:29;;;;;;;21.35;10.60;;;23.50;42.50;;;;;;4940947;29;20054;-89
2022/03/28 09:51:01;;;;;;;23.30;10.98;;;23.30;43.60;;;;;;4947246;28;20134;-89
2022/03/28 09:53:37;;;;;;;19.33;10.88;;;23.10;43.00;;;;;;4953333;29;20131;-89
2022/03/28 09:56:09;;;;;;;18.42;10.27;;;23.10;42.60;;;;;;4934625;29;20477;-89
2022/03/28 09:58:48;;;;;;;17.10;8.95;;;22.80;41.40;;;;;;4940778;29;20035;-89
2022/03/28 10:01:18;;;;;;;19.33;10.18;;;22.70;43.30;;;;;;4962010;29;20031;-89
2022/03/28 10:03:50;;;;;;;18.75;9.38;;;22.70;42.50;;;;;;4964721;29;20024;-90
2022/03/28 10:06:16;;;;;;;17.85;10.52;;;22.70;42.80;;;;;;4951746;29;20031;-89
2022/03/28 10:08:49;;;;;;;20.58;10.55;;;22.80;42.10;;;;;;4946965;29;20046;-89
2022/03/28 10:11:16;;;;;;;20.15;10.68;;;22.60;42.30;;;;;;4947529;29;20027;-89
2022/03/28 10:13:42;;;;;;;23.27;9.75;;;22.70;42.70;;;;;;4944951;29;20027;-89
2022/03/28 10:16:09;;;;;;;19.25;9.20;;;22.80;43.00;;;;;;4945821;29;20023;-90
2022/03/28 10:18:49;;;;;;;17.02;10.50;;;23.00;43.30;;;;;;4946419;29;20022;-90
2022/03/28 10:21:21;;;;;;;22.35;9.88;;;23.20;42.30;;;;;;4946184;29;20023;-89
2022/03/28 10:23:50;;;;;;;16.52;9.32;;;23.30;42.90;;;;;;4945724;29;20400;-90
2022/03/28 10:26:19;;;;;;;17.65;9.75;;;23.60;42.80;;;;;;4961402;29;20098;-90
2022/03/28 10:29:09;;;;;;;20.48;10.13;;;23.90;42.80;;;;;;4945242;28;20031;-90
2022/03/28 10:31:59;;;;;;;18.30;8.82;;;24.10;42.40;;;;;;4940552;29;20078;-90
2022/03/28 10:34:52;;;;;;;18.27;9.90;;;24.20;42.40;;;;;;4945137;29;20027;-90
2022/03/28 10:38:15;;;;;;;22.45;10.27;;;24.30;42.50;;;;;;4939228;28;20078;-88
2022/03/28 10:41:02;;;;;;;19.45;9.80;;;24.40;42.20;;;;;;4868083;29;20162;-89
2022/03/28 10:43:30;;;;;;;24.17;10.35;;;24.50;42.60;;;;;;4879576;29;20104;-87
2022/03/28 10:46:06;;;;;;;21.20;10.07;;;24.60;42.30;;;;;;4925187;29;20524;-89
2022/03/28 10:48:33;;;;;;;21.40;10.07;;;24.60;42.00;;;;;;4944424;29;20046;-89
2022/03/28 10:51:04;;;;;;;18.15;9.57;;;24.80;42.00;;;;;;4944895;29;20081;-89
2022/03/28 10:53:37;;;;;;;20.52;10.73;;;24.90;42.10;;;;;;4945300;29;20039;-89
2022/03/28 10:56:12;;;;;;;20.13;9.68;;;24.90;41.10;;;;;;4944944;29;20042;-89
2022/03/28 10:58:49;;;;;;;19.60;9.57;;;24.80;40.70;;;;;;4971338;28;20035;-86
2022/03/28 11:02:07;;;;;;;18.35;9.65;;;24.70;40.80;;;;;;4974090;28;20127;-88
2022/03/28 11:05:03;;;;;;;;;;;;;;;;;;;;;
2022/03/28 11:07:32;;;;;;;18.40;10.00;;;25.00;40.70;;;;;;4966553;28;20098;-88
2022/03/28 11:10:03;;;;;;;23.23;13.07;;;25.00;40.90;;;;;;4948029;28;20083;-88
2022/03/28 11:12:44;;;;;;;25.38;10.75;;;25.00;41.10;;;;;;4971028;28;20061;-88
2022/03/28 11:15:19;;;;;;;19.25;9.93;;;25.10;41.10;;;;;;4945632;28;20023;-91
2022/03/28 11:18:11;;;;;;;19.92;9.55;;;25.10;41.10;;;;;;4956235;29;20055;-89
2022/03/28 11:20:47;;;;;;;;;;;25.20;41.00;;;;;;4946209;29;20031;-88
2022/03/28 11:23:18;;;;;;;23.85;10.07;;;25.20;42.00;;;;;;4945069;29;19907;-89
2022/03/28 11:25:58;;;;;;;18.57;9.90;;;25.40;41.20;;;;;;4943976;29;20478;-89
2022/03/28 11:28:24;;;;;;;17.65;9.35;;;25.40;41.30;;;;;;4943385;29;20031;-89
2022/03/28 11:30:59;;;;;;;19.20;9.82;;;25.50;41.20;;;;;;4961932;28;20057;-89
2022/03/28 11:33:32;;;;;;;15.25;8.85;;;25.40;39.60;;;;;;4944885;29;20118;-89
2022/03/28 11:36:01;;;;;;;16.58;9.13;;;25.20;39.30;;;;;;4963510;28;20053;-90
2022/03/28 11:38:42;;;;;;;14.68;8.82;;;25.10;39.20;;;;;;4949892;29;20023;-88
2022/03/28 11:41:09;;;;;;;16.60;9.15;;;25.00;38.80;;;;;;4961112;29;20039;-88
2022/03/28 11:44:01;;;;;;;15.98;8.52;;;24.80;37.90;;;;;;4962355;29;20031;-88
2022/03/28 11:46:30;;;;;;;;;;;24.70;38.60;;;;;;4943781;29;20046;-89
2022/03/28 11:49:07;;;;;;;16.38;8.20;;;24.60;39.20;;;;;;4933669;29;19970;-88
2022/03/28 11:51:43;;;;;;;16.65;8.50;;;24.50;38.40;;;;;;4929039;29;20062;-88
2022/03/28 11:54:11;;;;;;;17.88;8.50;;;24.50;38.80;;;;;;4944318;29;20032;-87
2022/03/28 11:59:25;;;;;;;13.70;8.15;;;24.50;38.00;;;;;;4961901;28;20462;-88
2022/03/28 12:02:02;;;;;;;15.63;9.32;;;24.40;38.90;;;;;;4946431;29;20027;-89
2022/03/28 12:04:28;;;;;;;15.88;10.07;;;24.40;38.40;;;;;;4944569;29;20039;-88
2022/03/28 12:07:05;;;;;;;13.95;8.45;;;24.40;37.80;;;;;;4942888;29;20367;-89
2022/03/28 12:09:30;;;;;;;18.63;9.35;;;24.30;38.20;;;;;;4945634;28;20085;-89
2022/03/28 12:12:00;;;;;;;13.57;8.07;;;24.30;37.50;;;;;;4962335;28;20027;-89
2022/03/28 12:14:27;;;;;;;17.65;9.23;;;24.30;37.50;;;;;;4948856;28;20020;-89
2022/03/28 12:16:59;;;;;;;19.75;9.13;;;24.30;37.50;;;;;;4944611;29;20058;-88
2022/03/28 12:19:27;;;;;;;16.85;9.70;;;24.40;37.30;;;;;;4944053;29;20027;-90
2022/03/28 12:21:54;;;;;;;14.38;8.48;;;24.40;37.50;;;;;;4943788;29;20058;-89
2022/03/28 12:24:21;;;;;;;16.67;8.68;;;24.40;37.80;;;;;;4943935;28;20055;-89
2022/03/28 12:26:49;;;;;;;14.85;10.43;;;24.50;37.60;;;;;;4959347;29;20042;-89
2022/03/28 12:29:16;;;;;;;16.10;9.50;;;24.50;36.90;;;;;;4953234;28;20028;-89
2022/03/28 12:31:47;;;;;;;14.73;9.20;;;24.50;37.00;;;;;;4959175;28;20027;-89
2022/03/28 12:34:13;;;;;;;14.73;9.07;;;24.50;37.60;;;;;;4960298;29;20560;-89
2022/03/28 12:36:45;;;;;;;20.05;9.18;;;24.70;37.40;;;;;;4966740;28;20029;-89
2022/03/28 12:39:34;;;;;;;16.88;9.25;;;24.80;37.40;;;;;;4952021;29;20091;-88
2022/03/28 12:42:23;;;;;;;15.20;8.75;;;25.00;37.50;;;;;;4950707;29;20180;-88
2022/03/28 12:44:55;;;;;;;15.75;9.38;;;25.20;37.70;;;;;;4951849;29;20024;-90
2022/03/28 12:47:27;;;;;;;22.77;11.15;;;25.30;37.30;;;;;;4952807;28;20031;-89
2022/03/28 12:49:53;;;;;;;17.70;9.15;;;25.40;37.20;;;;;;4957576;28;20082;-89
2022/03/28 12:52:28;;;;;;;17.08;9.30;;;25.50;36.80;;;;;;4965579;29;20413;-89
2022/03/28 12:54:58;;;;;;;20.40;9.73;;;25.40;36.20;;;;;;4948556;29;20027;-88
2022/03/28 12:57:27;;;;;;;18.58;11.60;;;25.30;36.00;;;;;;4951157;29;20390;-89
2022/03/28 13:00:22;;;;;;;16.00;9.20;;;25.30;35.60;;;;;;4946407;29;20016;-89
2022/03/28 13:02:52;;;;;;;13.77;8.02;;;25.20;35.40;;;;;;4946394;29;20059;-88
2022/03/28 13:05:30;;;;;;;17.27;8.70;;;25.10;35.40;;;;;;4945537;29;20031;-89
2022/03/28 13:08:13;;;;;;;18.08;9.80;;;25.10;35.70;;;;;;4946113;28;20046;-89